Time;durP1;ratioP1;P1;durP2;ratioP2;P2;SDS_P1;SDS_P2;PMS_P1;PMS_P2;Temp;Humidity;BMP_temperature;BMP_pressure;BME280_temperature;BME280_humidity;BME280_pressure;Samples;Min_cycle;Max_cycle;Signal;HPM_P1;HPM_P2
2021/06/12 00:00:32;;;;;;;43.03;22.75;;;;;;;;;;5027407;28;20080;-69
2021/06/12 00:02:59;;;;;;;49.17;24.98;;;;;;;;;;5051352;28;20044;-67
2021/06/12 00:05:25;;;;;;;47.25;23.92;;;;;;;;;;5047239;28;20048;-68
2021/06/12 00:07:51;;;;;;;45.97;24.02;;;;;;;;;;5044694;28;20040;-67
2021/06/12 00:10:32;;;;;;;55.05;24.85;;;;;;;;;;5045701;28;20065;-66
2021/06/12 00:12:57;;;;;;;52.38;25.40;;;;;;;;;;5032340;28;20103;-67
2021/06/12 00:15:24;;;;;;;47.65;25.50;;;;;;;;;;5009547;28;20051;-66
2021/06/12 00:17:49;;;;;;;52.58;25.40;;;;;;;;;;5041538;28;20038;-67
2021/06/12 00:20:20;;;;;;;52.78;26.60;;;;;;;;;;5012387;28;20091;-67
2021/06/12 00:22:46;;;;;;;51.20;26.02;;;;;;;;;;5026104;28;20045;-68
2021/06/12 00:25:13;;;;;;;50.08;25.73;;;;;;;;;;5046169;28;20148;-66
2021/06/12 00:27:39;;;;;;;56.20;27.92;;;;;;;;;;5008026;28;20442;-67
2021/06/12 00:30:07;;;;;;;60.47;28.80;;;;;;;;;;5034973;28;20044;-66
2021/06/12 00:32:34;;;;;;;50.15;26.70;;;;;;;;;;5026949;28;20482;-67
2021/06/12 00:35:01;;;;;;;56.88;27.98;;;;;;;;;;5028132;28;20115;-67
2021/06/12 00:37:27;;;;;;;73.78;28.13;;;;;;;;;;5037928;28;20124;-67
2021/06/12 00:39:52;;;;;;;62.17;30.23;;;;;;;;;;5044891;28;20471;-66
2021/06/12 00:42:18;;;;;;;58.13;28.30;;;;;;;;;;5044815;28;20040;-71
2021/06/12 00:44:44;;;;;;;56.30;27.77;;;;;;;;;;5033407;28;20033;-68
2021/06/12 00:47:10;;;;;;;60.65;28.98;;;;;;;;;;5035756;28;20041;-67
2021/06/12 00:49:36;;;;;;;51.13;28.13;;;;;;;;;;5033227;28;20032;-67
2021/06/12 00:52:01;;;;;;;58.63;28.88;;;;;;;;;;5025642;28;20430;-65
2021/06/12 00:54:27;;;;;;;61.88;29.98;;;;;;;;;;5025656;28;20112;-67
2021/06/12 00:56:53;;;;;;;58.67;30.25;;;;;;;;;;5035153;28;20044;-67
2021/06/12 00:59:20;;;;;;;64.57;30.02;;;;;;;;;;5010303;28;20405;-66
2021/06/12 01:01:46;;;;;;;65.70;30.40;;;;;;;;;;5034510;28;20033;-69
2021/06/12 01:04:12;;;;;;;61.78;29.20;;;;;;;;;;5038641;28;20044;-66
2021/06/12 01:06:38;;;;;;;64.20;29.90;;;;;;;;;;5024718;28;20034;-67
2021/06/12 01:09:04;;;;;;;74.57;30.80;;;;;;;;;;5026478;28;20056;-66
2021/06/12 01:11:34;;;;;;;59.15;28.98;;;;;;;;;;5025325;28;20048;-68
2021/06/12 01:14:00;;;;;;;68.57;30.55;;;;;;;;;;4995172;28;20076;-65
2021/06/12 01:16:26;;;;;;;70.05;30.60;;;;;;;;;;5040378;28;20173;-66
2021/06/12 01:18:52;;;;;;;71.43;30.83;;;;;;;;;;5035528;28;20034;-67
2021/06/12 01:21:25;;;;;;;60.97;30.55;;;;;;;;;;5010360;28;20037;-67
2021/06/12 01:23:55;;;;;;;60.05;30.27;;;;;;;;;;5006594;28;20103;-67
2021/06/12 01:26:29;;;;;;;73.03;31.75;;;;;;;;;;5009073;28;20128;-66
2021/06/12 01:29:22;;;;;;;72.40;32.42;;;;;;;;;;5018200;28;20051;-65
2021/06/12 01:31:48;;;;;;;66.47;31.33;;;;;;;;;;4988377;28;20042;-67
2021/06/12 01:34:15;;;;;;;68.28;31.88;;;;;;;;;;4983722;28;20069;-66
2021/06/12 01:36:41;;;;;;;78.10;31.23;;;;;;;;;;4984293;28;20049;-66
2021/06/12 01:39:07;;;;;;;67.18;31.30;;;;;;;;;;4968997;28;20130;-66
2021/06/12 01:41:33;;;;;;;65.25;31.67;;;;;;;;;;4990593;28;20125;-66
2021/06/12 01:44:00;;;;;;;64.78;31.30;;;;;;;;;;4965526;28;20034;-67
2021/06/12 01:46:27;;;;;;;68.57;30.52;;;;;;;;;;4978566;28;20175;-68
2021/06/12 01:48:56;;;;;;;62.72;30.20;;;;;;;;;;4965138;28;20078;-64
2021/06/12 01:51:22;;;;;;;62.28;30.83;;;;;;;;;;4980914;28;20109;-67
2021/06/12 01:53:52;;;;;;;71.60;30.98;;;;;;;;;;4999819;28;20144;-66
2021/06/12 01:56:19;;;;;;;67.15;30.80;;;;;;;;;;4969210;28;20108;-64
2021/06/12 01:58:46;;;;;;;64.47;30.92;;;;;;;;;;4950602;28;20038;-66
2021/06/12 02:01:12;;;;;;;71.55;29.70;;;;;;;;;;4978051;28;20041;-66
2021/06/12 02:03:40;;;;;;;67.75;30.38;;;;;;;;;;4967277;28;20114;-67
2021/06/12 02:06:09;;;;;;;65.88;29.17;;;;;;;;;;4963849;28;20035;-67
2021/06/12 02:08:35;;;;;;;65.70;29.98;;;;;;;;;;4977848;28;20049;-67
2021/06/12 02:11:01;;;;;;;59.78;30.13;;;;;;;;;;5024719;28;20030;-65
2021/06/12 02:13:27;;;;;;;60.38;30.15;;;;;;;;;;5015942;28;20041;-66
2021/06/12 02:15:54;;;;;;;65.55;29.85;;;;;;;;;;5027121;28;20504;-65
2021/06/12 02:18:22;;;;;;;60.75;30.65;;;;;;;;;;5024703;28;20581;-64
2021/06/12 02:20:49;;;;;;;60.78;30.15;;;;;;;;;;5026738;28;20040;-63
2021/06/12 02:23:15;;;;;;;67.85;29.88;;;;;;;;;;5018109;28;20568;-65
2021/06/12 02:25:41;;;;;;;62.42;29.52;;;;;;;;;;5033643;28;20045;-66
2021/06/12 02:28:07;;;;;;;66.50;30.15;;;;;;;;;;5026526;28;20188;-63
2021/06/12 02:30:38;;;;;;;74.20;31.70;;;;;;;;;;5011113;28;20496;-64
2021/06/12 02:33:06;;;;;;;67.43;30.63;;;;;;;;;;5038937;28;20041;-65
2021/06/12 02:35:33;;;;;;;72.85;31.50;;;;;;;;;;5040347;28;20041;-65
2021/06/12 02:37:58;;;;;;;73.72;32.55;;;;;;;;;;5030026;28;20040;-65
2021/06/12 02:40:24;;;;;;;77.25;32.50;;;;;;;;;;5045288;28;20127;-65
2021/06/12 02:42:50;;;;;;;73.75;32.78;;;;;;;;;;5029113;28;20037;-68
2021/06/12 02:45:16;;;;;;;71.28;31.75;;;;;;;;;;5027206;28;20707;-65
2021/06/12 02:48:02;;;;;;;67.63;30.95;;;;;;;;;;5020695;28;20083;-65
2021/06/12 02:50:30;;;;;;;69.05;31.45;;;;;;;;;;5037180;28;20041;-64
2021/06/12 02:52:57;;;;;;;71.63;33.55;;;;;;;;;;5025770;28;20137;-66
2021/06/12 02:55:24;;;;;;;70.93;32.05;;;;;;;;;;5049113;28;20041;-64
2021/06/12 02:57:49;;;;;;;65.97;33.03;;;;;;;;;;5029646;28;20029;-68
2021/06/12 03:00:17;;;;;;;70.47;32.85;;;;;;;;;;5013320;28;20695;-64
2021/06/12 03:02:44;;;;;;;72.50;33.33;;;;;;;;;;5036897;28;20044;-65
2021/06/12 03:05:15;;;;;;;78.90;32.80;;;;;;;;;;5030886;28;20060;-65
2021/06/12 03:07:43;;;;;;;68.03;32.38;;;;;;;;;;5029713;28;20025;-65
2021/06/12 03:10:09;;;;;;;72.45;34.65;;;;;;;;;;5046189;28;20080;-64
2021/06/12 03:12:35;;;;;;;79.20;35.88;;;;;;;;;;5038606;28;20041;-67
2021/06/12 03:15:01;;;;;;;82.93;35.90;;;;;;;;;;5045383;28;20044;-63
2021/06/12 03:17:28;;;;;;;83.80;34.45;;;;;;;;;;5046379;28;20029;-63
2021/06/12 03:19:56;;;;;;;83.53;35.72;;;;;;;;;;5047578;28;20076;-64
2021/06/12 03:22:24;;;;;;;87.00;35.05;;;;;;;;;;5026012;28;20128;-69
2021/06/12 03:24:50;;;;;;;84.07;34.22;;;;;;;;;;5018867;28;20855;-65
2021/06/12 03:27:16;;;;;;;94.78;36.13;;;;;;;;;;5035833;28;20120;-64
2021/06/12 03:29:42;;;;;;;87.50;37.42;;;;;;;;;;5028543;28;20145;-66
2021/06/12 03:32:08;;;;;;;83.93;36.70;;;;;;;;;;5042024;28;20033;-66
2021/06/12 03:34:34;;;;;;;86.57;35.97;;;;;;;;;;5012380;28;20033;-64
2021/06/12 03:37:02;;;;;;;105.35;37.90;;;;;;;;;;5019200;28;20068;-66
2021/06/12 03:39:27;;;;;;;99.20;39.10;;;;;;;;;;5020706;28;20090;-64
2021/06/12 03:41:54;;;;;;;98.07;37.78;;;;;;;;;;5044128;28;20037;-65
2021/06/12 03:44:20;;;;;;;98.43;39.53;;;;;;;;;;5035265;28;20501;-65
2021/06/12 03:46:47;;;;;;;94.57;37.55;;;;;;;;;;5021023;28;20701;-65
2021/06/12 03:49:13;;;;;;;108.03;41.00;;;;;;;;;;5031433;28;20040;-66
2021/06/12 03:51:39;;;;;;;177.43;68.80;;;;;;;;;;5028449;28;20033;-66
2021/06/12 03:54:07;;;;;;;206.65;85.68;;;;;;;;;;5029840;28;20063;-66
2021/06/12 03:56:33;;;;;;;223.20;93.13;;;;;;;;;;5012237;28;20041;-67
2021/06/12 03:59:00;;;;;;;244.10;102.03;;;;;;;;;;5027399;28;20119;-65
2021/06/12 04:01:25;;;;;;;250.68;102.25;;;;;;;;;;5037730;28;20408;-64
2021/06/12 04:03:51;;;;;;;230.15;94.65;;;;;;;;;;5038024;28;20037;-65
2021/06/12 04:06:17;;;;;;;255.38;99.40;;;;;;;;;;5044863;28;20112;-69
2021/06/12 04:08:43;;;;;;;256.45;105.40;;;;;;;;;;5036670;28;20148;-65
2021/06/12 04:11:08;;;;;;;248.05;98.55;;;;;;;;;;5024217;28;20048;-65
2021/06/12 04:13:34;;;;;;;258.83;93.20;;;;;;;;;;5027515;28;20053;-65
2021/06/12 04:16:00;;;;;;;235.45;84.38;;;;;;;;;;5029149;28;20037;-66
2021/06/12 04:18:25;;;;;;;246.30;82.90;;;;;;;;;;5043157;28;20071;-64
2021/06/12 04:20:51;;;;;;;230.23;77.82;;;;;;;;;;5043279;28;20469;-65
2021/06/12 04:23:17;;;;;;;197.93;65.57;;;;;;;;;;5032280;28;20041;-69
2021/06/12 04:25:43;;;;;;;209.20;72.95;;;;;;;;;;5008759;28;20037;-65
2021/06/12 04:28:09;;;;;;;161.20;57.85;;;;;;;;;;5044543;28;20043;-65
2021/06/12 04:30:34;;;;;;;140.13;51.97;;;;;;;;;;5029240;28;20047;-65
2021/06/12 04:33:01;;;;;;;147.50;53.13;;;;;;;;;;5042411;28;20043;-65
2021/06/12 04:35:30;;;;;;;144.80;52.40;;;;;;;;;;5035001;28;20834;-67
2021/06/12 04:38:00;;;;;;;138.07;50.83;;;;;;;;;;4992869;28;20397;-64
2021/06/12 04:40:27;;;;;;;136.18;48.85;;;;;;;;;;5022838;28;20041;-64
2021/06/12 04:42:53;;;;;;;123.63;50.05;;;;;;;;;;5011728;28;20068;-66
2021/06/12 04:45:18;;;;;;;134.10;46.88;;;;;;;;;;5043782;28;20048;-65
2021/06/12 04:47:44;;;;;;;110.55;43.85;;;;;;;;;;5039837;28;20041;-65
2021/06/12 04:50:10;;;;;;;114.82;44.13;;;;;;;;;;5026968;28;20045;-66
2021/06/12 04:52:38;;;;;;;119.38;44.83;;;;;;;;;;5027954;28;20412;-65
2021/06/12 04:55:04;;;;;;;109.15;43.58;;;;;;;;;;5045276;28;20095;-67
2021/06/12 04:57:30;;;;;;;109.68;44.72;;;;;;;;;;5044610;28;20595;-67
2021/06/12 04:59:56;;;;;;;112.03;44.47;;;;;;;;;;5042941;28;20155;-66
2021/06/12 05:02:22;;;;;;;113.75;43.75;;;;;;;;;;5044605;28;20037;-64
2021/06/12 05:04:48;;;;;;;122.20;44.35;;;;;;;;;;5046023;28;20044;-67
2021/06/12 05:07:14;;;;;;;113.47;46.65;;;;;;;;;;5036464;28;20442;-66
2021/06/12 05:09:39;;;;;;;105.60;45.10;;;;;;;;;;5025951;28;20067;-64
2021/06/12 05:12:05;;;;;;;100.68;42.58;;;;;;;;;;5034353;28;20124;-65
2021/06/12 05:14:32;;;;;;;100.95;43.60;;;;;;;;;;5041010;28;20033;-66
2021/06/12 05:17:04;;;;;;;110.82;44.50;;;;;;;;;;5024983;28;20033;-65
2021/06/12 05:19:30;;;;;;;110.65;45.13;;;;;;;;;;5024217;28;20544;-67
2021/06/12 05:21:58;;;;;;;98.75;42.70;;;;;;;;;;5044345;28;20078;-66
2021/06/12 05:24:23;;;;;;;208.52;84.60;;;;;;;;;;5034736;28;20508;-67
2021/06/12 05:26:49;;;;;;;105.18;44.75;;;;;;;;;;5044341;28;20044;-66
2021/06/12 05:29:15;;;;;;;109.05;43.75;;;;;;;;;;5044979;28;20048;-68
2021/06/12 05:31:40;;;;;;;109.43;43.67;;;;;;;;;;5030202;28;20585;-70
2021/06/12 05:34:06;;;;;;;113.63;44.60;;;;;;;;;;5034287;28;20163;-66
2021/06/12 05:36:32;;;;;;;109.28;47.28;;;;;;;;;;5012181;28;20045;-66
2021/06/12 05:38:58;;;;;;;113.50;47.55;;;;;;;;;;5007914;28;20068;-65
2021/06/12 05:41:24;;;;;;;118.10;45.47;;;;;;;;;;5043329;28;20521;-65
2021/06/12 05:43:50;;;;;;;97.03;43.33;;;;;;;;;;5026452;28;20020;-67
2021/06/12 05:46:16;;;;;;;103.47;43.70;;;;;;;;;;5034476;28;20061;-65
2021/06/12 05:48:44;;;;;;;96.13;41.55;;;;;;;;;;5013459;28;20037;-65
2021/06/12 05:51:11;;;;;;;106.22;45.42;;;;;;;;;;5026220;28;20024;-66
2021/06/12 05:53:37;;;;;;;105.07;45.55;;;;;;;;;;4990459;28;20409;-67
2021/06/12 05:56:03;;;;;;;109.53;44.80;;;;;;;;;;5025700;28;20480;-64
2021/06/12 05:58:29;;;;;;;106.72;43.25;;;;;;;;;;5043440;28;20366;-70
2021/06/12 06:00:54;;;;;;;88.53;41.15;;;;;;;;;;5043690;28;20816;-64
2021/06/12 06:03:20;;;;;;;94.57;39.80;;;;;;;;;;5045461;28;20061;-64
2021/06/12 06:05:48;;;;;;;94.38;41.22;;;;;;;;;;5019199;28;20041;-66
2021/06/12 06:08:14;;;;;;;90.45;39.13;;;;;;;;;;5032975;28;20638;-64
2021/06/12 06:10:40;;;;;;;85.82;39.53;;;;;;;;;;5043975;28;20465;-66
2021/06/12 06:13:05;;;;;;;91.63;40.03;;;;;;;;;;5024315;28;20516;-68
2021/06/12 06:15:31;;;;;;;98.90;40.50;;;;;;;;;;5038928;28;20021;-71
2021/06/12 06:18:00;;;;;;;92.13;39.45;;;;;;;;;;5029489;28;20123;-67
2021/06/12 06:20:26;;;;;;;83.45;37.47;;;;;;;;;;5033606;28;20033;-65
2021/06/12 06:22:52;;;;;;;90.22;38.40;;;;;;;;;;5005714;28;20043;-65
2021/06/12 06:25:19;;;;;;;85.05;36.45;;;;;;;;;;5028865;28;20033;-65
2021/06/12 06:27:47;;;;;;;79.00;37.03;;;;;;;;;;5038321;28;20034;-67
2021/06/12 06:30:14;;;;;;;89.05;37.63;;;;;;;;;;5011889;28;20095;-65
2021/06/12 06:32:40;;;;;;;84.20;38.10;;;;;;;;;;5035113;28;20059;-71
2021/06/12 06:35:06;;;;;;;91.72;39.03;;;;;;;;;;5048243;28;20033;-65
2021/06/12 06:37:32;;;;;;;91.45;36.38;;;;;;;;;;5031535;28;20040;-65
2021/06/12 06:39:58;;;;;;;90.80;36.90;;;;;;;;;;5021910;28;20052;-66
2021/06/12 06:42:24;;;;;;;84.95;37.38;;;;;;;;;;5009903;28;20033;-66
2021/06/12 06:44:50;;;;;;;88.40;39.03;;;;;;;;;;5019454;28;20059;-64
2021/06/12 06:47:16;;;;;;;87.32;36.75;;;;;;;;;;5029548;28;20268;-67
2021/06/12 06:49:41;;;;;;;74.38;34.25;;;;;;;;;;5047413;28;20092;-64
2021/06/12 06:52:08;;;;;;;90.03;37.47;;;;;;;;;;5009859;28;20040;-68
2021/06/12 06:54:34;;;;;;;76.20;34.40;;;;;;;;;;5032232;28;20490;-69
2021/06/12 06:57:00;;;;;;;68.90;31.33;;;;;;;;;;4990546;28;20076;-70
2021/06/12 06:59:26;;;;;;;72.32;31.45;;;;;;;;;;5031757;28;20064;-68
2021/06/12 07:01:51;;;;;;;84.78;33.63;;;;;;;;;;5013390;28;20453;-69
2021/06/12 07:04:17;;;;;;;78.07;32.40;;;;;;;;;;5044389;28;20041;-67
2021/06/12 07:06:43;;;;;;;72.35;31.15;;;;;;;;;;5029904;28;20036;-71
2021/06/12 07:09:09;;;;;;;67.68;29.85;;;;;;;;;;5023348;28;20057;-70
2021/06/12 07:11:37;;;;;;;70.50;29.80;;;;;;;;;;5022331;28;20516;-70
2021/06/12 07:14:03;;;;;;;68.40;29.50;;;;;;;;;;5023272;28;20089;-68
2021/06/12 07:16:31;;;;;;;63.55;28.98;;;;;;;;;;5009671;28;20033;-69
2021/06/12 07:18:58;;;;;;;63.00;29.55;;;;;;;;;;5020205;28;20037;-64
2021/06/12 07:21:24;;;;;;;68.78;29.75;;;;;;;;;;5019046;28;20040;-59
2021/06/12 07:24:00;;;;;;;61.25;30.13;;;;;;;;;;5018788;28;20038;-63
2021/06/12 07:26:26;;;;;;;62.10;29.40;;;;;;;;;;5018233;28;20033;-59
2021/06/12 07:28:52;;;;;;;65.63;27.80;;;;;;;;;;5020642;28;20055;-59
2021/06/12 07:31:19;;;;;;;61.10;27.85;;;;;;;;;;5034933;28;20045;-64
2021/06/12 07:33:45;;;;;;;57.35;27.13;;;;;;;;;;5032994;28;20095;-64
2021/06/12 07:36:14;;;;;;;58.45;27.48;;;;;;;;;;5017524;28;20045;-65
2021/06/12 07:38:40;;;;;;;58.10;25.90;;;;;;;;;;5002934;28;20358;-63
2021/06/12 07:41:06;;;;;;;64.35;26.88;;;;;;;;;;5016500;28;20045;-68
2021/06/12 07:43:32;;;;;;;52.80;23.38;;;;;;;;;;5018993;28;20031;-68
2021/06/12 07:45:58;;;;;;;58.22;26.00;;;;;;;;;;5020920;28;20037;-64
2021/06/12 07:48:25;;;;;;;51.58;22.92;;;;;;;;;;5019337;28;20192;-63
2021/06/12 07:50:51;;;;;;;53.97;22.67;;;;;;;;;;5019504;28;20185;-56
2021/06/12 07:53:17;;;;;;;46.75;22.05;;;;;;;;;;5007837;28;20045;-64
2021/06/12 07:55:42;;;;;;;46.63;24.05;;;;;;;;;;5015919;28;20038;-62
2021/06/12 07:58:08;;;;;;;43.83;23.25;;;;;;;;;;5019051;28;20033;-58
2021/06/12 08:00:36;;;;;;;50.67;24.80;;;;;;;;;;5019668;28;20104;-63
2021/06/12 08:03:02;;;;;;;48.17;22.45;;;;;;;;;;5027489;28;20038;-60
2021/06/12 08:05:28;;;;;;;51.53;21.88;;;;;;;;;;5009209;28;20390;-61
2021/06/12 08:07:54;;;;;;;69.50;23.48;;;;;;;;;;5021438;28;20130;-63
2021/06/12 08:10:20;;;;;;;38.65;21.23;;;;;;;;;;5021880;28;20065;-63
2021/06/12 08:12:46;;;;;;;40.05;21.88;;;;;;;;;;5005710;28;20061;-63
2021/06/12 08:15:12;;;;;;;38.15;20.00;;;;;;;;;;5002040;28;20733;-62
2021/06/12 08:17:39;;;;;;;44.75;20.35;;;;;;;;;;4996071;28;20034;-64
2021/06/12 08:20:05;;;;;;;40.88;20.65;;;;;;;;;;5005041;28;20453;-63
2021/06/12 08:22:32;;;;;;;41.78;20.10;;;;;;;;;;4994723;28;20029;-63
2021/06/12 08:24:57;;;;;;;53.78;17.02;;;;;;;;;;5000916;28;20033;-68
2021/06/12 08:27:23;;;;;;;43.58;18.45;;;;;;;;;;4996024;28;20414;-65
2021/06/12 08:29:50;;;;;;;67.70;21.88;;;;;;;;;;4999457;28;21035;-63
2021/06/12 08:32:16;;;;;;;38.05;19.05;;;;;;;;;;4982279;28;20041;-63
2021/06/12 08:34:42;;;;;;;31.20;16.73;;;;;;;;;;4997982;28;20034;-62
2021/06/12 08:37:08;;;;;;;29.38;17.83;;;;;;;;;;4993925;28;20084;-63
2021/06/12 08:39:34;;;;;;;34.25;18.88;;;;;;;;;;4992531;28;20069;-63
2021/06/12 08:42:00;;;;;;;39.95;17.83;;;;;;;;;;4995870;28;20123;-68
2021/06/12 08:44:26;;;;;;;35.30;17.38;;;;;;;;;;4977308;28;20038;-63
2021/06/12 08:46:52;;;;;;;43.28;19.33;;;;;;;;;;4987596;28;20034;-66
2021/06/12 08:49:19;;;;;;;44.72;20.00;;;;;;;;;;5001221;28;20045;-54
2021/06/12 08:51:45;;;;;;;40.20;20.48;;;;;;;;;;5013962;28;20053;-63
2021/06/12 08:54:19;;;;;;;78.32;21.33;;;;;;;;;;5010929;28;20843;-63
2021/06/12 08:56:50;;;;;;;46.13;19.60;;;;;;;;;;4986840;28;20045;-61
2021/06/12 08:59:17;;;;;;;35.42;19.05;;;;;;;;;;4977070;28;20038;-61
2021/06/12 09:01:44;;;;;;;36.53;19.95;;;;;;;;;;4997219;28;20036;-62
2021/06/12 09:04:30;;;;;;;32.65;18.23;;;;;;;;;;4995904;28;20041;-63
2021/06/12 09:07:14;;;;;;;67.40;21.65;;;;;;;;;;4995774;28;20053;-62
2021/06/12 09:09:40;;;;;;;44.13;21.65;;;;;;;;;;4996485;28;20153;-63
2021/06/12 09:12:09;;;;;;;45.13;20.45;;;;;;;;;;4989636;28;20044;-60
2021/06/12 09:14:34;;;;;;;43.78;20.92;;;;;;;;;;4999311;28;20835;-62
2021/06/12 09:17:00;;;;;;;44.35;21.30;;;;;;;;;;4995329;28;20480;-62
2021/06/12 09:19:26;;;;;;;43.80;22.17;;;;;;;;;;4997119;28;21403;-60
2021/06/12 09:21:59;;;;;;;52.78;21.60;;;;;;;;;;5003923;28;20065;-63
2021/06/12 09:24:34;;;;;;;50.67;21.45;;;;;;;;;;4995018;28;20038;-64
2021/06/12 09:27:02;;;;;;;45.92;21.17;;;;;;;;;;5007102;28;20065;-68
2021/06/12 09:29:33;;;;;;;49.03;21.77;;;;;;;;;;4995523;28;20030;-64
2021/06/12 09:31:59;;;;;;;40.25;22.08;;;;;;;;;;4982201;28;20147;-62
2021/06/12 09:34:26;;;;;;;44.95;22.15;;;;;;;;;;4979066;28;20137;-63
2021/06/12 09:36:53;;;;;;;44.58;22.20;;;;;;;;;;4995857;28;20840;-59
2021/06/12 09:39:23;;;;;;;49.92;21.73;;;;;;;;;;4993302;28;20088;-61
2021/06/12 09:41:53;;;;;;;48.60;22.50;;;;;;;;;;4992276;28;20045;-61
2021/06/12 09:44:30;;;;;;;50.58;24.00;;;;;;;;;;5007350;28;20066;-55
2021/06/12 09:46:57;;;;;;;47.33;23.42;;;;;;;;;;4996226;28;20034;-64
2021/06/12 09:49:34;;;;;;;49.88;25.73;;;;;;;;;;4997875;28;20050;-63
2021/06/12 09:52:01;;;;;;;47.28;23.45;;;;;;;;;;4981991;28;20498;-59
2021/06/12 09:54:37;;;;;;;46.65;22.27;;;;;;;;;;4995777;28;20041;-60
2021/06/12 09:57:10;;;;;;;50.17;23.52;;;;;;;;;;4995922;28;20033;-63
2021/06/12 09:59:44;;;;;;;42.72;22.00;;;;;;;;;;5012648;28;20050;-63
2021/06/12 10:02:10;;;;;;;45.00;23.08;;;;;;;;;;4998551;28;20038;-58
2021/06/12 10:04:54;;;;;;;44.60;24.67;;;;;;;;;;4994423;28;20065;-67
2021/06/12 10:07:21;;;;;;;46.40;22.85;;;;;;;;;;4994489;28;20040;-62
2021/06/12 10:09:47;;;;;;;44.85;23.75;;;;;;;;;;5009829;28;20494;-68
2021/06/12 10:12:13;;;;;;;42.15;22.30;;;;;;;;;;5020572;28;20022;-67
2021/06/12 10:14:40;;;;;;;48.20;24.00;;;;;;;;;;5014317;28;20045;-65
2021/06/12 10:17:07;;;;;;;53.90;24.63;;;;;;;;;;5018611;28;20072;-69
2021/06/12 10:19:36;;;;;;;46.35;23.65;;;;;;;;;;5000136;28;20037;-69
2021/06/12 10:22:02;;;;;;;45.97;23.17;;;;;;;;;;5012201;28;20049;-67
2021/06/12 10:24:28;;;;;;;44.97;23.58;;;;;;;;;;5015455;28;20046;-68
2021/06/12 10:26:55;;;;;;;41.17;23.15;;;;;;;;;;4995635;28;20037;-64
2021/06/12 10:29:22;;;;;;;42.95;21.95;;;;;;;;;;5015478;28;20184;-69
2021/06/12 10:31:48;;;;;;;47.65;22.70;;;;;;;;;;5010752;28;20705;-71
2021/06/12 10:34:15;;;;;;;49.17;23.70;;;;;;;;;;4997606;28;20041;-72
2021/06/12 10:36:56;;;;;;;52.38;24.42;;;;;;;;;;5014872;28;20037;-69
2021/06/12 10:39:30;;;;;;;37.43;21.83;;;;;;;;;;4996574;28;20033;-69
2021/06/12 10:42:14;;;;;;;48.63;22.23;;;;;;;;;;4970915;28;20033;-70
2021/06/12 10:44:41;;;;;;;47.22;22.80;;;;;;;;;;5012761;28;20555;-75
2021/06/12 10:47:07;;;;;;;45.03;23.33;;;;;;;;;;5015812;28;20033;-72
2021/06/12 10:49:34;;;;;;;43.63;22.77;;;;;;;;;;5033775;28;20313;-67
2021/06/12 10:52:02;;;;;;;40.78;21.92;;;;;;;;;;5020111;28;20053;-70
2021/06/12 10:54:34;;;;;;;36.13;21.15;;;;;;;;;;4992302;28;20079;-68
2021/06/12 10:57:02;;;;;;;45.00;23.08;;;;;;;;;;4992158;28;20040;-68
2021/06/12 10:59:50;;;;;;;52.03;25.08;;;;;;;;;;5001860;28;20522;-70
2021/06/12 11:03:02;;;;;;;56.47;23.52;;;;;;;;;;4994993;28;20045;-67
2021/06/12 11:05:25;;;;;;;42.70;24.00;;;;;;;;;;5014165;28;20097;-68
2021/06/12 11:08:12;;;;;;;57.88;24.30;;;;;;;;;;5017360;28;20043;-68
2021/06/12 11:10:38;;;;;;;45.83;25.05;;;;;;;;;;5025988;28;20145;-69
2021/06/12 11:13:26;;;;;;;55.80;25.27;;;;;;;;;;5017436;28;20124;-69
2021/06/12 11:16:13;;;;;;;47.15;26.45;;;;;;;;;;5008011;28;20034;-71
2021/06/12 11:18:40;;;;;;;57.72;24.30;;;;;;;;;;5006093;28;20061;-70
2021/06/12 11:21:07;;;;;;;50.08;24.27;;;;;;;;;;5024573;28;20513;-70
2021/06/12 11:23:44;;;;;;;53.38;26.20;;;;;;;;;;5016865;28;20038;-72
2021/06/12 11:26:14;;;;;;;43.67;23.50;;;;;;;;;;5002888;28;20140;-70
2021/06/12 11:28:46;;;;;;;42.83;23.88;;;;;;;;;;5016926;28;20034;-73
2021/06/12 11:31:23;;;;;;;53.30;24.70;;;;;;;;;;5013048;28;20033;-74
2021/06/12 11:34:11;;;;;;;55.67;25.98;;;;;;;;;;5019493;28;20183;-72
2021/06/12 11:36:37;;;;;;;45.20;24.17;;;;;;;;;;5015506;28;20057;-66
2021/06/12 11:39:04;;;;;;;77.80;25.80;;;;;;;;;;5019179;28;20172;-71
2021/06/12 11:41:30;;;;;;;55.45;24.30;;;;;;;;;;5024678;28;20118;-67
2021/06/12 11:43:59;;;;;;;50.90;26.23;;;;;;;;;;5004677;28;20056;-69
2021/06/12 11:46:28;;;;;;;55.00;25.02;;;;;;;;;;5011322;28;20084;-71
2021/06/12 11:48:55;;;;;;;57.65;25.42;;;;;;;;;;5028151;28;20041;-70
2021/06/12 11:51:27;;;;;;;51.13;23.67;;;;;;;;;;5016149;28;20906;-70
2021/06/12 11:54:04;;;;;;;61.35;25.83;;;;;;;;;;5015223;28;20045;-75
2021/06/12 11:56:33;;;;;;;56.63;26.13;;;;;;;;;;5021998;28;20034;-72
2021/06/12 11:58:59;;;;;;;57.45;25.35;;;;;;;;;;5012216;28;20041;-74
2021/06/12 12:01:46;;;;;;;60.95;26.55;;;;;;;;;;5007128;28;20837;-71
2021/06/12 12:04:14;;;;;;;53.53;24.80;;;;;;;;;;5016380;28;20033;-77
2021/06/12 12:07:06;;;;;;;63.13;26.40;;;;;;;;;;4993296;28;20037;-70
2021/06/12 12:09:32;;;;;;;56.90;26.38;;;;;;;;;;5025692;28;20053;-71
2021/06/12 12:11:59;;;;;;;58.95;26.50;;;;;;;;;;5038265;28;20132;-76
2021/06/12 12:14:45;;;;;;;57.78;26.73;;;;;;;;;;5020461;28;20685;-75
2021/06/12 12:17:21;;;;;;;65.47;28.00;;;;;;;;;;5035251;28;20022;-65
2021/06/12 12:20:04;;;;;;;59.58;26.42;;;;;;;;;;5024313;28;20043;-67
2021/06/12 12:22:49;;;;;;;63.20;27.83;;;;;;;;;;5018499;28;20041;-78
2021/06/12 12:25:24;;;;;;;66.70;27.95;;;;;;;;;;5001853;28;20095;-70
2021/06/12 12:28:07;;;;;;;54.45;27.55;;;;;;;;;;5009554;28;20029;-73
2021/06/12 12:30:32;;;;;;;;;;;;;;;;;;5040301;28;20040;-70
2021/06/12 12:33:05;;;;;;;59.20;25.13;;;;;;;;;;5028302;28;19981;-71
2021/06/12 12:35:31;;;;;;;56.08;26.42;;;;;;;;;;5009686;28;20396;-73
2021/06/12 12:38:09;;;;;;;54.65;26.35;;;;;;;;;;5019867;28;20462;-73
2021/06/12 12:40:35;;;;;;;53.75;26.15;;;;;;;;;;5002435;28;20131;-72
2021/06/12 12:43:02;;;;;;;45.22;25.55;;;;;;;;;;5036743;28;20049;-71
2021/06/12 12:45:31;;;;;;;58.22;24.70;;;;;;;;;;5018643;28;20043;-71
2021/06/12 12:47:57;;;;;;;45.17;23.95;;;;;;;;;;5015184;28;20494;-73
2021/06/12 12:50:23;;;;;;;49.35;23.58;;;;;;;;;;5002504;28;20033;-70
2021/06/12 12:53:09;;;;;;;56.70;25.52;;;;;;;;;;5018876;28;20041;-70
2021/06/12 12:55:37;;;;;;;51.45;25.85;;;;;;;;;;5031849;28;20068;-70
2021/06/12 12:58:03;;;;;;;50.17;25.52;;;;;;;;;;5035576;28;20088;-72
2021/06/12 13:00:36;;;;;;;57.70;27.92;;;;;;;;;;5002089;28;20041;-68
2021/06/12 13:03:06;;;;;;;48.38;26.52;;;;;;;;;;5003096;28;20033;-69
2021/06/12 13:05:39;;;;;;;49.72;26.38;;;;;;;;;;5029539;28;20037;-69
2021/06/12 13:08:06;;;;;;;51.42;27.88;;;;;;;;;;4998530;28;20041;-71
2021/06/12 13:10:34;;;;;;;56.00;29.55;;;;;;;;;;5021456;28;20143;-73
2021/06/12 13:13:01;;;;;;;56.97;28.15;;;;;;;;;;5019422;28;20041;-70
2021/06/12 13:15:27;;;;;;;57.40;30.17;;;;;;;;;;5017895;28;20160;-71
2021/06/12 13:18:03;;;;;;;59.33;28.67;;;;;;;;;;5026484;28;20075;-71
2021/06/12 13:20:29;;;;;;;65.22;32.55;;;;;;;;;;5040479;28;20041;-70
2021/06/12 13:22:55;;;;;;;66.53;32.58;;;;;;;;;;5034245;28;20373;-70
2021/06/12 13:25:22;;;;;;;61.85;30.90;;;;;;;;;;5035566;28;20131;-70
2021/06/12 13:28:04;;;;;;;73.93;32.22;;;;;;;;;;5036345;28;20029;-70
2021/06/12 13:30:32;;;;;;;;;;;;;;;;;;5006446;28;20037;-69
2021/06/12 13:32:58;;;;;;;62.50;32.28;;;;;;;;;;5041458;28;20408;-69
2021/06/12 13:35:28;;;;;;;69.90;31.40;;;;;;;;;;5044727;28;20044;-71
2021/06/12 13:38:08;;;;;;;70.03;30.23;;;;;;;;;;5014205;28;20041;-70
2021/06/12 13:40:36;;;;;;;63.15;31.83;;;;;;;;;;5023504;28;20037;-71
2021/06/12 13:43:12;;;;;;;67.97;30.52;;;;;;;;;;5045648;28;20533;-68
2021/06/12 13:45:41;;;;;;;68.15;31.40;;;;;;;;;;5009878;28;20086;-71
2021/06/12 13:48:07;;;;;;;50.35;27.60;;;;;;;;;;5008766;28;20119;-70
2021/06/12 13:50:33;;;;;;;55.53;28.33;;;;;;;;;;5038757;28;20503;-71
2021/06/12 13:52:59;;;;;;;56.17;29.30;;;;;;;;;;5041219;28;20551;-70
2021/06/12 13:55:24;;;;;;;54.40;28.00;;;;;;;;;;5025890;28;20040;-72
2021/06/12 13:57:52;;;;;;;66.90;27.88;;;;;;;;;;5037252;28;20421;-70
2021/06/12 14:00:18;;;;;;;56.00;26.75;;;;;;;;;;5008556;28;20028;-71
2021/06/12 14:02:43;;;;;;;57.65;28.58;;;;;;;;;;5006097;28;20057;-69
2021/06/12 14:05:10;;;;;;;58.35;28.75;;;;;;;;;;5015846;28;20032;-69
2021/06/12 14:07:41;;;;;;;65.45;30.63;;;;;;;;;;5043892;28;20041;-68
2021/06/12 14:10:08;;;;;;;57.30;29.45;;;;;;;;;;5029047;28;20131;-69
2021/06/12 14:12:33;;;;;;;57.65;30.90;;;;;;;;;;5028464;28;20187;-69
2021/06/12 14:14:59;;;;;;;73.55;32.70;;;;;;;;;;5007603;28;20140;-70
2021/06/12 14:17:25;;;;;;;78.00;32.95;;;;;;;;;;5022218;28;20040;-69
2021/06/12 14:19:50;;;;;;;64.60;33.58;;;;;;;;;;5037887;28;20052;-66
2021/06/12 14:22:16;;;;;;;67.00;33.30;;;;;;;;;;5042279;28;20492;-66